Time;durP1;ratioP1;P1;durP2;ratioP2;P2;SDS_P1;SDS_P2;PMS_P1;PMS_P2;Temp;Humidity;BMP_temperature;BMP_pressure;BME280_temperature;BME280_humidity;BME280_pressure;Samples;Min_cycle;Max_cycle;Signal;HPM_P1;HPM_P2
2022/06/17 00:00:50;;;;;;;8.90;4.50;;;;;;;19.94;49.03;100786.33;117442;1183;21846;-56
2022/06/17 00:03:17;;;;;;;6.90;4.60;;;;;;;19.91;49.00;100784.14;117491;1184;23440;-50
2022/06/17 00:05:45;;;;;;;9.00;4.30;;;;;;;19.91;49.05;100783.97;117410;1186;22905;-56
2022/06/17 00:08:20;;;;;;;5.30;4.20;;;;;;;19.93;49.02;100779.77;117370;1185;22586;-56
2022/06/17 00:10:47;;;;;;;7.30;4.70;;;;;;;19.95;49.03;100780.77;117398;1185;22930;-50
2022/06/17 00:13:16;;;;;;;10.00;4.90;;;;;;;19.93;49.22;100780.69;117298;1183;24223;-50
2022/06/17 00:15:45;;;;;;;8.10;4.80;;;;;;;19.92;49.27;100772.89;117433;1185;21978;-56
2022/06/17 00:18:13;;;;;;;9.90;5.40;;;;;;;19.89;49.29;100771.05;117418;1185;22908;-56
2022/06/17 00:20:40;;;;;;;9.80;5.30;;;;;;;19.90;49.35;100765.86;117412;1186;22912;-56
2022/06/17 00:23:12;;;;;;;9.00;5.10;;;;;;;19.92;49.35;100762.22;117461;1182;23537;-57
2022/06/17 00:25:40;;;;;;;7.00;4.80;;;;;;;19.91;49.45;100760.09;117452;1182;22986;-56
2022/06/17 00:28:11;;;;;;;6.00;4.70;;;;;;;19.90;49.47;100762.09;117383;1185;24131;-50
2022/06/17 00:30:38;;;;;;;12.20;5.40;;;;;;;19.89;49.49;100759.47;117407;1183;22889;-50
2022/06/17 00:33:06;;;;;;;7.60;4.90;;;;;;;19.87;49.58;100757.23;117477;1186;22914;-56
2022/06/17 00:35:40;;;;;;;6.00;4.90;;;;;;;19.84;49.68;100756.86;117471;1183;23458;-56
2022/06/17 00:38:15;;;;;;;6.70;5.10;;;;;;;19.79;49.74;100760.80;117389;1183;23709;-56
2022/06/17 00:40:43;;;;;;;6.70;4.80;;;;;;;19.74;49.90;100763.88;117382;1186;24159;-51
2022/06/17 00:43:16;;;;;;;7.30;5.30;;;;;;;19.72;50.03;100756.83;117482;1180;22991;-50
2022/06/17 00:46:24;;;;;;;9.90;5.40;;;;;;;19.68;50.10;100756.47;117456;1183;23439;-50
2022/06/17 00:49:10;;;;;;;7.90;5.40;;;;;;;19.64;50.24;100757.73;117392;1186;21931;-50
2022/06/17 00:52:08;;;;;;;5.90;4.80;;;;;;;19.62;50.27;100756.75;117444;1183;23435;-50
2022/06/17 00:54:46;;;;;;;5.80;4.80;;;;;;;19.59;50.35;100758.48;117495;1186;21817;-50
2022/06/17 00:57:25;;;;;;;6.70;4.60;;;;;;;19.56;50.34;100754.15;117406;1184;23446;-50
2022/06/17 01:00:07;;;;;;;6.90;5.30;;;;;;;19.57;50.45;100754.45;117277;1182;23247;-56
2022/06/17 01:02:37;;;;;;;5.60;4.90;;;;;;;19.55;50.54;100750.27;117365;1186;21837;-49
2022/06/17 01:05:04;;;;;;;7.10;5.00;;;;;;;19.55;50.61;100752.27;117467;1186;21834;-50
2022/06/17 01:07:36;;;;;;;11.70;5.70;;;;;;;19.54;50.61;100746.60;117443;1185;22933;-57
2022/06/17 01:10:09;;;;;;;7.80;5.70;;;;;;;19.54;50.58;100740.91;117331;1186;22905;-50
2022/06/17 01:12:53;;;;;;;8.50;5.70;;;;;;;19.55;50.72;100743.34;117437;1183;22800;-49
2022/06/17 01:15:21;;;;;;;8.40;5.50;;;;;;;19.55;50.88;100745.13;117415;1185;22912;-56
2022/06/17 01:17:49;;;;;;;6.80;5.30;;;;;;;19.53;50.96;100741.32;117403;1186;23573;-49
2022/06/17 01:20:16;;;;;;;7.20;5.10;;;;;;;19.50;50.90;100740.52;117574;1185;21863;-49
2022/06/17 01:22:49;;;;;;;7.40;5.50;;;;;;;19.50;50.95;100736.63;117459;1184;23541;-56
2022/06/17 01:25:19;;;;;;;6.80;5.30;;;;;;;19.50;50.97;100735.71;117470;1186;21846;-56
2022/06/17 01:27:47;;;;;;;;;;;;;;;19.50;51.05;100730.73;117462;1183;24127;-49
2022/06/17 01:30:32;;;;;;;5.00;4.40;;;;;;;19.50;51.06;100726.29;117428;1185;21849;-50
2022/06/17 01:33:04;;;;;;;9.80;5.10;;;;;;;19.50;51.09;100727.73;117411;1183;23663;-50
2022/06/17 01:35:56;;;;;;;7.80;5.00;;;;;;;19.49;51.12;100723.31;117396;1182;22962;-49
2022/06/17 01:38:23;;;;;;;8.80;5.30;;;;;;;19.43;51.24;100724.46;117403;1182;21907;-56
2022/06/17 01:40:51;;;;;;;7.30;5.70;;;;;;;19.43;51.28;100726.39;117421;1186;21891;-57
2022/06/17 01:43:18;;;;;;;6.80;6.00;;;;;;;19.45;51.37;100718.88;117412;1185;24272;-50
2022/06/17 01:46:06;;;;;;;7.30;6.00;;;;;;;19.45;51.41;100715.46;117455;1182;22913;-56
2022/06/17 01:48:35;;;;;;;10.70;6.10;;;;;;;19.46;51.45;100716.67;117450;1186;21843;-56
2022/06/17 01:51:02;;;;;;;9.10;6.10;;;;;;;19.44;51.43;100716.38;117435;1183;24869;-49
2022/06/17 01:53:30;;;;;;;9.70;6.50;;;;;;;19.43;51.42;100715.77;117185;1185;22338;-57
2022/06/17 01:56:02;;;;;;;9.20;5.80;;;;;;;19.42;51.44;100716.88;117380;1186;23456;-57
2022/06/17 01:58:38;;;;;;;6.50;5.90;;;;;;;19.40;51.43;100715.16;117400;1186;22916;-56
2022/06/17 02:01:06;;;;;;;7.30;6.00;;;;;;;19.39;51.56;100711.48;117382;1185;22636;-49
2022/06/17 02:03:35;;;;;;;8.40;6.00;;;;;;;19.39;51.57;100707.21;117362;1185;23030;-53
2022/06/17 02:06:08;;;;;;;8.30;6.10;;;;;;;19.39;51.62;100707.94;117347;1182;23455;-49
2022/06/17 02:08:36;;;;;;;7.30;6.60;;;;;;;19.39;51.77;100709.70;117437;1183;22937;-57
2022/06/17 02:11:03;;;;;;;9.20;6.80;;;;;;;19.39;51.81;100714.49;117537;1185;22953;-49
2022/06/17 02:13:38;;;;;;;8.10;6.10;;;;;;;19.38;51.82;100714.90;117395;1182;21859;-49
2022/06/17 02:16:05;;;;;;;10.00;6.50;;;;;;;19.39;51.86;100712.39;117413;1182;24155;-49
2022/06/17 02:18:32;;;;;;;7.30;6.00;;;;;;;19.40;52.03;100713.94;117359;1184;21850;-55
2022/06/17 02:21:01;;;;;;;9.20;6.40;;;;;;;19.41;52.09;100714.95;117457;1179;23458;-57
2022/06/17 02:23:28;;;;;;;7.60;6.00;;;;;;;19.43;52.19;100712.02;117391;1183;22915;-56
2022/06/17 02:25:55;;;;;;;9.10;6.20;;;;;;;19.42;52.16;100706.71;117248;1183;22926;-49
2022/06/17 02:28:22;;;;;;;10.50;6.40;;;;;;;19.42;52.20;100706.19;117377;1185;22915;-56
2022/06/17 02:30:50;;;;;;;8.40;6.80;;;;;;;19.43;52.31;100705.24;117149;1186;22298;-49
2022/06/17 02:33:17;;;;;;;9.50;6.80;;;;;;;19.45;52.35;100704.09;117160;1186;21895;-56
2022/06/17 02:36:01;;;;;;;8.60;6.00;;;;;;;19.44;52.40;100701.42;117216;1185;22914;-49
2022/06/17 02:38:30;;;;;;;8.10;6.50;;;;;;;19.47;52.47;100702.73;117395;1183;23544;-49
2022/06/17 02:41:00;;;;;;;7.70;6.40;;;;;;;19.50;52.56;100705.13;117426;1181;22918;-56
2022/06/17 02:43:29;;;;;;;10.20;7.20;;;;;;;19.53;52.53;100706.80;117383;1185;21954;-49
2022/06/17 02:46:02;;;;;;;7.30;6.10;;;;;;;19.56;52.54;100710.90;117223;1186;21985;-50
2022/06/17 02:48:32;;;;;;;9.50;7.10;;;;;;;19.60;52.68;100707.33;117370;1186;23628;-49
2022/06/17 02:51:00;;;;;;;9.30;6.70;;;;;;;19.65;52.69;100711.77;117353;1186;22978;-51
2022/06/17 02:53:29;;;;;;;9.90;7.00;;;;;;;19.68;52.89;100709.27;117207;1186;23018;-56
2022/06/17 02:55:56;;;;;;;8.20;7.30;;;;;;;19.71;53.00;100710.57;117127;1186;22913;-56
2022/06/17 02:58:39;;;;;;;10.20;6.80;;;;;;;19.75;53.00;100712.20;117458;1182;21851;-49
2022/06/17 03:01:12;;;;;;;8.40;7.50;;;;;;;19.81;53.05;100709.28;117356;1182;22900;-56
2022/06/17 03:03:39;;;;;;;9.10;7.30;;;;;;;19.84;53.03;100709.48;117394;1182;22947;-56
2022/06/17 03:06:11;;;;;;;11.20;7.80;;;;;;;19.89;53.27;100707.31;117248;1185;21890;-56
2022/06/17 03:08:38;;;;;;;8.80;7.10;;;;;;;19.90;53.17;100707.28;117320;1186;22904;-52
2022/06/17 03:11:06;;;;;;;8.90;7.70;;;;;;;19.91;53.34;100710.77;117406;1183;22495;-55
2022/06/17 03:13:37;;;;;;;11.90;7.70;;;;;;;19.94;53.40;100705.15;117186;1186;23544;-48
2022/06/17 03:16:05;;;;;;;;;;;;;;;19.99;53.30;100704.70;117391;1183;23487;-49
2022/06/17 03:18:32;;;;;;;9.60;7.30;;;;;;;20.09;53.39;100706.04;117435;1183;23439;-49
2022/06/17 03:20:59;;;;;;;11.80;7.80;;;;;;;20.11;53.42;100704.16;117217;1188;21864;-49
2022/06/17 03:23:30;;;;;;;9.40;7.90;;;;;;;20.15;53.62;100702.93;117180;1186;22176;-51
2022/06/17 03:26:02;;;;;;;13.50;7.70;;;;;;;20.19;53.68;100703.10;117312;1186;22967;-49
2022/06/17 03:28:32;;;;;;;13.40;7.20;;;;;;;20.26;53.90;100704.35;117238;1185;21849;-56
2022/06/17 03:31:13;;;;;;;7.40;6.60;;;;;;;20.33;53.80;100704.02;117219;1183;22915;-50
2022/06/17 03:33:55;;;;;;;13.70;7.90;;;;;;;20.40;54.15;100703.86;117222;1182;21976;-56
2022/06/17 03:36:30;;;;;;;15.70;7.90;;;;;;;20.50;53.90;100704.99;117251;1186;22036;-56
2022/06/17 03:38:59;;;;;;;13.50;7.60;;;;;;;20.58;53.85;100702.30;117314;1185;23465;-50
2022/06/17 03:41:33;;;;;;;20.90;7.90;;;;;;;20.66;53.84;100702.27;117191;1189;21848;-50
2022/06/17 03:44:15;;;;;;;16.70;8.70;;;;;;;20.74;53.68;100701.89;117293;1183;23549;-50
2022/06/17 03:46:50;;;;;;;17.00;7.60;;;;;;;20.82;53.66;100703.81;117190;1186;21850;-56
2022/06/17 03:49:24;;;;;;;13.10;7.40;;;;;;;20.88;53.56;100703.48;117317;1182;23470;-52
2022/06/17 03:51:55;;;;;;;17.10;7.10;;;;;;;20.93;53.50;100700.04;117095;1188;21842;-50
2022/06/17 03:54:22;;;;;;;8.10;6.90;;;;;;;20.98;53.63;100697.85;117495;1183;23452;-50
2022/06/17 03:56:51;;;;;;;10.70;6.70;;;;;;;21.02;53.71;100696.77;117334;1185;21852;-50
2022/06/17 03:59:20;;;;;;;7.70;6.20;;;;;;;21.01;53.74;100696.81;117322;1189;21860;-50
2022/06/17 04:02:08;;;;;;;7.80;6.20;;;;;;;21.00;53.93;100695.23;117250;1185;23701;-50
2022/06/17 04:04:42;;;;;;;9.70;6.60;;;;;;;21.13;54.01;100691.41;117418;1182;21849;-49
2022/06/17 04:07:11;;;;;;;8.90;6.30;;;;;;;21.24;54.00;100691.70;117465;1182;22913;-56
2022/06/17 04:09:40;;;;;;;10.20;6.70;;;;;;;21.34;54.02;100690.09;117293;1186;23452;-50
2022/06/17 04:12:19;;;;;;;8.90;6.10;;;;;;;21.46;54.02;100690.36;117385;1186;22985;-50
2022/06/17 04:14:47;;;;;;;10.40;6.00;;;;;;;21.68;53.75;100686.36;117283;1185;21847;-55
2022/06/17 04:17:48;;;;;;;8.20;6.20;;;;;;;21.87;54.05;100682.31;117233;1185;22633;-50
2022/06/17 04:20:21;;;;;;;7.40;5.60;;;;;;;22.06;54.13;100683.63;117214;1186;24408;-51
2022/06/17 04:22:49;;;;;;;8.20;5.40;;;;;;;22.21;54.18;100679.55;117320;1183;23467;-50
2022/06/17 04:25:45;;;;;;;10.00;6.00;;;;;;;22.36;53.97;100679.25;117396;1186;21847;-51
2022/06/17 04:28:18;;;;;;;10.50;5.80;;;;;;;22.55;54.00;100677.45;117302;1186;23058;-56
2022/06/17 04:30:47;;;;;;;9.10;5.30;;;;;;;22.74;53.89;100671.74;117333;1182;22179;-57
2022/06/17 04:33:18;;;;;;;9.50;5.30;;;;;;;22.92;53.81;100673.56;117446;1182;22616;-52
2022/06/17 04:35:45;;;;;;;8.40;4.20;;;;;;;23.08;53.73;100671.19;117353;1182;22176;-56
2022/06/17 04:38:12;;;;;;;6.60;4.30;;;;;;;23.19;53.58;100668.92;117326;1180;23635;-52
2022/06/17 04:40:41;;;;;;;7.40;4.40;;;;;;;23.37;53.60;100668.91;117271;1183;21967;-56
2022/06/17 04:43:29;;;;;;;4.80;3.70;;;;;;;23.49;53.42;100665.17;117343;1182;23462;-56
2022/06/17 04:46:09;;;;;;;6.50;4.10;;;;;;;23.60;53.29;100664.61;117340;1183;21873;-56
2022/06/17 04:48:39;;;;;;;6.80;3.80;;;;;;;23.75;53.17;100672.31;117334;1186;21854;-51
2022/06/17 04:51:08;;;;;;;6.20;4.30;;;;;;;23.81;53.37;100672.45;117351;1186;22608;-54
2022/06/17 04:53:35;;;;;;;6.50;3.70;;;;;;;23.85;53.14;100675.62;117329;1185;22623;-52
2022/06/17 04:56:02;;;;;;;5.80;3.60;;;;;;;23.92;53.04;100669.94;117207;1182;23453;-51
2022/06/17 04:58:30;;;;;;;7.40;3.90;;;;;;;24.06;52.99;100671.28;117452;1180;22908;-55
2022/06/17 05:00:57;;;;;;;5.50;3.70;;;;;;;24.25;52.58;100663.94;117396;1182;24263;-56
2022/06/17 05:03:28;;;;;;;4.80;3.80;;;;;;;24.40;52.42;100657.41;117454;1182;21857;-50
2022/06/17 05:05:55;;;;;;;7.80;3.80;;;;;;;24.54;52.32;100653.26;117424;1183;22905;-51
2022/06/17 05:08:27;;;;;;;5.80;3.80;;;;;;;24.68;52.19;100653.78;117417;1182;22906;-55
2022/06/17 05:10:59;;;;;;;7.20;3.70;;;;;;;24.82;52.04;100653.39;117323;1183;24158;-53
2022/06/17 05:13:35;;;;;;;5.50;3.20;;;;;;;24.99;51.77;100652.23;117375;1188;21890;-55
2022/06/17 05:16:03;;;;;;;6.00;2.60;;;;;;;25.21;51.57;100651.66;117365;1183;23563;-54
2022/06/17 05:18:30;;;;;;;4.70;2.30;;;;;;;25.44;51.38;100647.77;117384;1186;21855;-55
2022/06/17 05:20:57;;;;;;;4.30;2.30;;;;;;;25.63;51.02;100649.63;117270;1182;24157;-52
2022/06/17 05:23:24;;;;;;;5.10;2.30;;;;;;;25.77;50.58;100645.41;117397;1182;21960;-56
2022/06/17 05:25:53;;;;;;;4.00;2.50;;;;;;;25.90;50.21;100645.58;117329;1185;22978;-56
2022/06/17 05:28:20;;;;;;;6.20;1.80;;;;;;;25.99;49.99;100643.84;117391;1182;21908;-56
2022/06/17 05:30:53;;;;;;;4.50;2.20;;;;;;;26.10;49.77;100643.57;117607;1183;22906;-55
2022/06/17 05:33:23;;;;;;;6.80;2.00;;;;;;;26.19;49.85;100642.23;117405;1182;21850;-53
2022/06/17 05:35:50;;;;;;;4.30;1.90;;;;;;;26.33;49.43;100642.98;117460;1185;21866;-56
2022/06/17 05:38:17;;;;;;;5.80;2.00;;;;;;;26.45;49.16;100639.05;117433;1182;25537;-56
2022/06/17 05:40:44;;;;;;;4.70;2.10;;;;;;;26.59;48.96;100638.20;117355;1185;21843;-56
2022/06/17 05:43:11;;;;;;;11.30;2.60;;;;;;;26.73;48.75;100636.73;117362;1183;22915;-54
2022/06/17 05:45:39;;;;;;;3.40;1.60;;;;;;;26.82;48.50;100634.66;117419;1183;22803;-56
2022/06/17 05:48:06;;;;;;;3.50;2.10;;;;;;;26.93;48.41;100638.45;117432;1184;23436;-53
2022/06/17 05:50:33;;;;;;;4.50;2.10;;;;;;;27.10;48.31;100637.34;117463;1185;21858;-56
2022/06/17 05:53:05;;;;;;;4.60;2.20;;;;;;;27.26;47.74;100634.53;117419;1183;23455;-53
2022/06/17 05:55:33;;;;;;;6.10;2.50;;;;;;;27.29;47.59;100632.29;117449;1186;21858;-53
2022/06/17 05:58:00;;;;;;;3.40;1.60;;;;;;;27.34;47.84;100629.91;118024;1181;24135;-55
2022/06/17 06:00:27;;;;;;;4.00;2.00;;;;;;;27.44;47.70;100630.97;117387;1182;22924;-53
2022/06/17 06:03:00;;;;;;;4.40;1.90;;;;;;;27.57;47.75;100627.60;117310;1186;22927;-56
2022/06/17 06:05:30;;;;;;;3.10;1.40;;;;;;;27.73;47.66;100629.20;117380;1182;21855;-53
2022/06/17 06:07:57;;;;;;;3.20;1.80;;;;;;;27.86;47.45;100627.39;117415;1182;22172;-55
2022/06/17 06:10:29;;;;;;;4.20;2.00;;;;;;;28.03;47.18;100623.18;117494;1186;21859;-55
2022/06/17 06:13:05;;;;;;;4.30;1.90;;;;;;;28.16;46.62;100620.69;117421;1183;24159;-56
2022/06/17 06:15:38;;;;;;;3.50;2.20;;;;;;;28.25;46.61;100613.05;117390;1183;21841;-53
2022/06/17 06:18:07;;;;;;;2.90;1.60;;;;;;;28.35;46.35;100612.63;117354;1186;21935;-55
2022/06/17 06:20:34;;;;;;;3.00;1.70;;;;;;;28.43;46.04;100609.09;117436;1186;21857;-53
2022/06/17 06:23:01;;;;;;;3.40;1.90;;;;;;;28.54;46.08;100605.78;117382;1182;23563;-56
2022/06/17 06:25:28;;;;;;;2.80;1.70;;;;;;;28.70;46.16;100604.04;117396;1185;22990;-56
2022/06/17 06:27:55;;;;;;;4.20;1.80;;;;;;;28.87;45.91;100603.72;117432;1182;22620;-54
2022/06/17 06:30:25;;;;;;;4.20;1.80;;;;;;;28.99;45.36;100603.95;117394;1184;22919;-53
2022/06/17 06:32:54;;;;;;;6.70;1.80;;;;;;;29.10;45.29;100600.33;117495;1186;22966;-56
2022/06/17 06:35:23;;;;;;;4.20;2.10;;;;;;;29.28;45.56;100598.02;117424;1186;22932;-55
2022/06/17 06:37:51;;;;;;;5.80;1.70;;;;;;;29.46;45.14;100599.35;117343;1183;24158;-55
2022/06/17 06:40:18;;;;;;;3.30;1.40;;;;;;;29.57;44.78;100598.26;117276;1183;21880;-56
2022/06/17 06:42:47;;;;;;;3.50;1.50;;;;;;;29.65;44.60;100594.80;117301;1184;23445;-56
2022/06/17 06:45:25;;;;;;;5.60;1.70;;;;;;;29.80;44.27;100595.78;117412;1186;21857;-55
2022/06/17 06:47:53;;;;;;;4.10;2.10;;;;;;;29.93;44.16;100592.48;117433;1180;22639;-56
2022/06/17 06:50:26;;;;;;;5.60;1.70;;;;;;;30.02;43.53;100588.82;117438;1185;22893;-54
2022/06/17 06:52:52;;;;;;;2.90;1.50;;;;;;;30.09;43.46;100589.95;117411;1185;21839;-55
2022/06/17 06:55:20;;;;;;;9.10;2.00;;;;;;;30.26;43.67;100587.89;117403;1182;22167;-56
2022/06/17 06:58:21;;;;;;;5.00;2.10;;;;;;;30.48;43.02;100586.94;117417;1182;22634;-56
2022/06/17 07:00:49;;;;;;;7.20;2.00;;;;;;;30.64;42.11;100582.99;117341;1182;22917;-54
2022/06/17 07:03:17;;;;;;;6.10;1.90;;;;;;;30.75;41.81;100582.60;117241;1186;21864;-56
2022/06/17 07:05:49;;;;;;;4.60;2.00;;;;;;;30.84;41.79;100579.58;117237;1186;22899;-56
2022/06/17 07:08:18;;;;;;;3.30;1.40;;;;;;;30.98;41.63;100576.98;117207;1182;22915;-56
2022/06/17 07:10:46;;;;;;;4.70;1.70;;;;;;;31.09;40.66;100578.70;117225;1189;21850;-54
2022/06/17 07:13:13;;;;;;;4.60;1.80;;;;;;;31.16;40.48;100577.63;117198;1186;22957;-56
2022/06/17 07:15:41;;;;;;;3.90;1.50;;;;;;;31.38;40.36;100575.18;117223;1182;22803;-56
2022/06/17 07:18:13;;;;;;;4.30;1.90;;;;;;;31.62;39.90;100570.48;117215;1183;22917;-56
2022/06/17 07:20:43;;;;;;;10.00;2.60;;;;;;;31.67;39.12;100567.64;117159;1183;21875;-54
2022/06/17 07:23:24;;;;;;;6.70;1.90;;;;;;;31.72;39.41;100564.08;117331;1186;21849;-54
2022/06/17 07:25:52;;;;;;;5.10;2.00;;;;;;;31.84;38.95;100562.15;117121;1185;22108;-54
2022/06/17 07:28:22;;;;;;;5.60;1.90;;;;;;;31.83;38.61;100562.64;116912;1188;21861;-54
2022/06/17 07:30:50;;;;;;;5.20;2.00;;;;;;;31.62;37.61;100565.76;116930;1186;22969;-56
2022/06/17 07:33:18;;;;;;;3.50;1.60;;;;;;;31.66;38.36;100562.88;117279;1181;24141;-55
2022/06/17 07:35:45;;;;;;;3.20;1.80;;;;;;;31.90;38.36;100559.77;117354;1186;21843;-56
2022/06/17 07:41:09;;;;;;;2.80;1.80;;;;;;;32.29;37.87;100553.36;118198;1185;22899;-55
2022/06/17 07:43:36;;;;;;;3.60;1.50;;;;;;;32.46;37.59;100550.41;117704;1183;22616;-55
2022/06/17 07:46:05;;;;;;;5.50;1.90;;;;;;;32.60;36.61;100545.55;117262;1182;21845;-55
2022/06/17 07:48:33;;;;;;;5.20;1.60;;;;;;;32.77;36.74;100546.52;117374;1184;22959;-53
2022/06/17 07:51:01;;;;;;;4.40;1.40;;;;;;;32.89;36.22;100545.92;117345;1180;24149;-56
2022/06/17 07:53:29;;;;;;;3.10;1.90;;;;;;;32.98;36.35;100545.75;117363;1182;24214;-56
2022/06/17 07:55:58;;;;;;;4.90;1.70;;;;;;;32.98;36.19;100545.64;117382;1184;23621;-54
2022/06/17 07:58:25;;;;;;;3.60;1.90;;;;;;;32.91;36.17;100544.27;117496;1186;21886;-54
2022/06/17 08:00:54;;;;;;;5.00;2.10;;;;;;;32.85;35.66;100541.52;117288;1183;23462;-56
2022/06/17 08:03:21;;;;;;;7.80;1.60;;;;;;;32.75;35.61;100536.66;117399;1183;22930;-55
2022/06/17 08:05:51;;;;;;;3.40;1.60;;;;;;;32.67;34.68;100539.50;117305;1187;22963;-55
2022/06/17 08:08:21;;;;;;;3.80;1.60;;;;;;;32.67;35.06;100539.19;117340;1185;22919;-54
2022/06/17 08:10:50;;;;;;;2.60;1.60;;;;;;;32.78;35.50;100538.70;117302;1186;22959;-55
2022/06/17 08:13:17;;;;;;;4.80;1.70;;;;;;;32.98;35.25;100536.48;117320;1185;22269;-54
2022/06/17 08:15:45;;;;;;;2.80;1.50;;;;;;;33.09;34.45;100538.14;117362;1186;21861;-54
2022/06/17 08:18:13;;;;;;;4.50;1.60;;;;;;;33.02;33.90;100540.63;117376;1182;21848;-54
2022/06/17 08:20:41;;;;;;;4.50;1.70;;;;;;;32.96;34.17;100539.81;117354;1184;21914;-54
2022/06/17 08:23:08;;;;;;;4.20;1.80;;;;;;;32.94;34.04;100535.08;117222;1186;23299;-55
2022/06/17 08:25:35;;;;;;;4.20;1.70;;;;;;;33.01;34.07;100533.09;117305;1185;23544;-55
2022/06/17 08:28:05;;;;;;;3.70;1.60;;;;;;;33.16;34.47;100526.82;117321;1185;22832;-55
2022/06/17 08:30:37;;;;;;;3.90;1.70;;;;;;;33.38;33.22;100533.17;117391;1183;21852;-55
2022/06/17 08:33:04;;;;;;;4.20;1.80;;;;;;;33.49;32.88;100531.31;117359;1184;23552;-57
2022/06/17 08:35:51;;;;;;;3.10;1.60;;;;;;;33.55;32.57;100526.90;117371;1180;23544;-55
2022/06/17 08:38:26;;;;;;;3.20;1.50;;;;;;;33.67;33.04;100529.24;117333;1185;23566;-55
2022/06/17 08:40:54;;;;;;;5.40;1.80;;;;;;;33.95;32.95;100530.58;117290;1182;21917;-56
2022/06/17 08:43:49;;;;;;;5.30;1.80;;;;;;;34.15;32.15;100530.19;117264;1185;23436;-54
2022/06/17 08:46:17;;;;;;;5.20;1.60;;;;;;;34.25;32.31;100530.02;117381;1186;21858;-56
2022/06/17 08:49:04;;;;;;;3.50;1.70;;;;;;;34.29;30.53;100528.00;117285;1184;21852;-56
2022/06/17 08:51:54;;;;;;;3.10;1.30;;;;;;;34.22;30.95;100522.33;117310;1185;22160;-55
2022/06/17 08:54:27;;;;;;;4.20;1.70;;;;;;;34.24;31.55;100519.15;117301;1184;24181;-55
2022/06/17 08:57:03;;;;;;;5.30;1.90;;;;;;;34.45;31.25;100525.98;117339;1186;22807;-53
2022/06/17 08:59:52;;;;;;;4.30;2.00;;;;;;;34.55;31.17;100518.17;117512;1186;23656;-57
2022/06/17 09:02:39;;;;;;;6.00;2.10;;;;;;;34.65;31.01;100515.08;117363;1182;23435;-56
2022/06/17 09:05:24;;;;;;;3.50;1.70;;;;;;;34.79;31.00;100516.77;117366;1184;22791;-54
2022/06/17 09:07:57;;;;;;;3.50;1.50;;;;;;;34.88;30.93;100514.85;117142;1186;22916;-56
2022/06/17 09:10:50;;;;;;;4.80;2.00;;;;;;;34.72;30.66;100515.75;117127;1187;21861;-54
2022/06/17 09:13:42;;;;;;;5.00;1.80;;;;;;;34.48;30.38;100513.86;117276;1188;22970;-54
2022/06/17 09:16:19;;;;;;;4.00;1.60;;;;;;;34.20;29.82;100510.17;117341;1185;22006;-56
2022/06/17 09:18:48;;;;;;;2.90;1.80;;;;;;;33.88;29.51;100508.95;117200;1182;24161;-56
2022/06/17 09:21:20;;;;;;;2.80;1.70;;;;;;;33.43;30.18;100511.22;117433;1185;22815;-54
2022/06/17 09:23:48;;;;;;;3.10;1.50;;;;;;;33.03;30.08;100513.02;117322;1186;23253;-55
2022/06/17 09:26:26;;;;;;;3.40;1.70;;;;;;;32.69;30.27;100510.10;117308;1185;21858;-54
2022/06/17 09:28:57;;;;;;;6.40;1.90;;;;;;;32.45;30.26;100515.05;117347;1185;22631;-56
2022/06/17 09:31:58;;;;;;;3.60;1.80;;;;;;;32.24;30.44;100517.73;117421;1182;21911;-55
2022/06/17 09:34:34;;;;;;;3.30;1.80;;;;;;;32.03;30.65;100520.93;117350;1186;22813;-55
2022/06/17 09:37:03;;;;;;;3.50;1.90;;;;;;;31.97;30.73;100522.79;117472;1183;23551;-56
2022/06/17 09:39:33;;;;;;;19.00;2.30;;;;;;;31.90;30.38;100526.39;117370;1183;24151;-56
2022/06/17 09:42:02;;;;;;;;;;;;;;;31.73;30.66;100524.94;117456;1183;23653;-54
2022/06/17 09:44:33;;;;;;;4.80;1.90;;;;;;;31.70;30.67;100525.23;117467;1185;21869;-55
2022/06/17 09:47:38;;;;;;;125.40;11.50;;;;;;;31.59;30.82;100526.66;117408;1186;22914;-55
2022/06/17 09:50:27;;;;;;;4.10;2.20;;;;;;;31.43;31.04;100530.82;117305;1186;22915;-56
2022/06/17 09:53:01;;;;;;;3.70;2.00;;;;;;;31.17;31.16;100531.88;117325;1182;22802;-55
2022/06/17 09:55:38;;;;;;;3.70;1.60;;;;;;;30.97;31.21;100532.89;117235;1185;23465;-55
2022/06/17 09:58:28;;;;;;;4.60;1.50;;;;;;;30.80;30.88;100534.02;117238;1185;23589;-54
2022/06/17 10:00:56;;;;;;;5.00;1.70;;;;;;;30.60;30.69;100528.61;117327;1182;22906;-54
2022/06/17 10:03:28;;;;;;;10.20;2.60;;;;;;;30.45;30.55;100530.77;117401;1182;22642;-56
2022/06/17 10:06:17;;;;;;;5.20;1.80;;;;;;;30.34;30.67;100534.14;117330;1183;21847;-56
2022/06/17 10:09:31;;;;;;;3.20;2.10;;;;;;;30.24;32.47;100535.91;117335;1183;22931;-57
2022/06/17 10:12:20;;;;;;;9.10;2.10;;;;;;;30.04;33.48;100532.05;117173;1185;23540;-54
2022/06/17 10:14:54;;;;;;;6.40;1.90;;;;;;;29.92;33.80;100527.98;117403;1182;22053;-57
2022/06/17 10:20:45;;;;;;;4.30;1.80;;;;;;;29.72;35.14;100519.91;117382;1185;21961;-55
2022/06/17 10:23:35;;;;;;;5.00;1.70;;;;;;;29.71;35.67;100509.34;117373;1183;22921;-54
2022/06/17 10:26:21;;;;;;;7.50;2.30;;;;;;;29.76;35.93;100499.05;117329;1183;22092;-56
2022/06/17 10:29:00;;;;;;;6.60;2.40;;;;;;;29.87;36.19;100494.08;117268;1185;21869;-55
2022/06/17 10:31:41;;;;;;;5.70;1.60;;;;;;;29.97;36.00;100486.67;117342;1182;22897;-55
2022/06/17 10:34:29;;;;;;;5.20;2.30;;;;;;;30.07;36.12;100482.34;117370;1182;23468;-56
2022/06/17 10:36:59;;;;;;;8.10;2.10;;;;;;;30.12;36.22;100474.82;117366;1182;23615;-57
2022/06/17 10:39:27;;;;;;;3.60;1.70;;;;;;;30.18;36.39;100474.45;117389;1184;21890;-54
2022/06/17 10:41:55;;;;;;;4.60;1.60;;;;;;;30.25;36.42;100472.66;117438;1181;24713;-56
2022/06/17 10:44:24;;;;;;;4.30;1.90;;;;;;;30.34;36.49;100469.70;117483;1181;23868;-54
2022/06/17 10:47:24;;;;;;;3.20;1.60;;;;;;;30.48;36.47;100466.35;117511;1185;21900;-54
2022/06/17 10:49:57;;;;;;;3.80;1.50;;;;;;;30.75;36.38;100456.94;117450;1183;21861;-57
2022/06/17 10:52:43;;;;;;;4.50;1.60;;;;;;;31.11;36.56;100445.16;117434;1186;21849;-57
2022/06/17 10:55:24;;;;;;;5.20;1.50;;;;;;;31.67;36.47;100437.81;117413;1185;22923;-57
2022/06/17 10:58:08;;;;;;;8.00;1.50;;;;;;;32.24;36.11;100430.91;117388;1183;24215;-55
2022/06/17 11:00:42;;;;;;;3.60;1.60;;;;;;;32.71;35.83;100424.83;117348;1182;22845;-55
2022/06/17 11:03:36;;;;;;;3.10;1.60;;;;;;;33.12;35.09;100427.27;117357;1185;21921;-57
2022/06/17 11:06:06;;;;;;;2.40;1.70;;;;;;;33.36;34.09;100427.23;117350;1186;21900;-57
2022/06/17 11:08:42;;;;;;;4.10;1.40;;;;;;;33.49;33.73;100421.48;117368;1180;22932;-57
2022/06/17 11:13:58;;;;;;;4.20;1.50;;;;;;;33.89;33.87;100421.88;117286;1185;21866;-58
2022/06/17 11:16:26;;;;;;;4.40;1.40;;;;;;;34.01;34.14;100418.71;117417;1182;22614;-55
2022/06/17 11:18:58;;;;;;;2.50;1.30;;;;;;;34.04;33.89;100422.34;117394;1185;21858;-56
2022/06/17 11:21:38;;;;;;;6.40;1.40;;;;;;;34.01;33.45;100423.32;117377;1183;22613;-57
2022/06/17 11:24:06;;;;;;;;;;;;;;;33.82;32.97;100422.02;117438;1185;21833;-57
2022/06/17 11:26:35;;;;;;;3.80;1.70;;;;;;;33.58;32.85;100426.13;117376;1186;22942;-53
2022/06/17 11:29:05;;;;;;;7.30;1.90;;;;;;;33.23;32.96;100431.15;117365;1181;21925;-54
2022/06/17 11:31:34;;;;;;;2.90;1.30;;;;;;;32.90;33.19;100426.16;117404;1185;22915;-56
2022/06/17 11:34:11;;;;;;;7.30;2.40;;;;;;;32.64;33.37;100421.89;117413;1185;21852;-54
2022/06/17 11:36:52;;;;;;;7.20;1.60;;;;;;;32.39;33.53;100431.23;117358;1183;24236;-57
2022/06/17 11:39:35;;;;;;;4.20;2.00;;;;;;;32.13;33.64;100435.55;117329;1182;21892;-53
2022/06/17 11:42:24;;;;;;;4.00;1.40;;;;;;;31.85;33.80;100439.05;117439;1182;24254;-56
2022/06/17 11:44:57;;;;;;;4.40;1.50;;;;;;;31.59;34.00;100442.03;117450;1180;21861;-56
2022/06/17 11:47:26;;;;;;;4.20;1.90;;;;;;;31.38;34.02;100448.08;117410;1182;22964;-54
2022/06/17 11:49:54;;;;;;;3.20;1.60;;;;;;;31.25;34.23;100449.56;117446;1186;21869;-53
2022/06/17 11:52:31;;;;;;;3.20;1.50;;;;;;;31.15;34.25;100447.69;117405;1182;23784;-55